Perseverance — WDD5594 — position and weather

sailwx.info

Track history (hours):
 
Tides and Currents Weather Stations Pressure Air Temp Water Temp Dewpoint Dewpoint Depression Visibility Wind Speed Wind Dir Waves Ship Positions

Perseverance

More information available from US FCC via Universal Licensing System and Coast Guard Vessel Documentation Center.

Last reported at 2014-Aug-01 04:28 UTC. Time now 2014-Aug-01 05:53 UTC.
Position N 45°53' W 124°15'.

Type: Fishing. MMSI: 367618000.

Date/timePositionNaut miles runAvg speedWind from/ knotsBaromVisibWave heightAir tempDewpointWater temp
2014-Aug-01 04:28N 45°53' W 124°15'7 7.7
2014-Aug-01 03:33N 45°46' W 124°16'8 7.7
2014-Aug-01 02:33N 45°38' W 124°17'7 7.3
2014-Aug-01 01:33N 45°31' W 124°20'7 7.1
2014-Aug-01 00:34N 45°25' W 124°22'7 7.2
2014-Jul-31 23:33N 45°17' W 124°24'7 7.1
2014-Jul-31 22:33N 45°11' W 124°27'8 6.6
2014-Jul-31 21:24N 45°03' W 124°29'6 6.5
2014-Jul-31 20:33N 44°58' W 124°31'4 0.3
2014-Jul-31 08:15N 44°57' W 124°35'6 8.2
2014-Jul-31 07:33N 45°02' W 124°33'19 8.2
2014-Jul-31 05:17N 45°20' W 124°26'11 8.9
2014-Jul-31 04:05N 45°30' W 124°22'4 8.5
2014-Jul-31 03:34N 45°35' W 124°21'10 9.2
2014-Jul-31 02:29N 45°44' W 124°17'8 8.8
2014-Jul-31 01:33N 45°52' W 124°14'9 8.9
2014-Jul-31 00:33N 46°01' W 124°11'9 8.9
2014-Jul-30 23:33N 46°09' W 124°08'8 7.6
2014-Jul-30 22:34N 46°15' W 124°00'7 6.6
2014-Jul-30 21:33N 46°12' W 123°52'1 1.4
2014-Jul-30 20:33N 46°12' W 123°50'0 0.0
2014-Jul-30 19:34N 46°12' W 123°50'0 0.0
2014-Jul-30 18:33N 46°12' W 123°50'1 1.1
2014-Jul-30 17:33N 46°11' W 123°52'0 0.0
2014-Jul-30 16:33N 46°11' W 123°52'0 0.0
2014-Jul-30 15:33N 46°11' W 123°52'0 0.0
2014-Jul-30 14:33N 46°11' W 123°52'0 0.0
2014-Jul-30 13:34N 46°11' W 123°52'0 0.0
2014-Jul-30 12:33N 46°11' W 123°52'0 0.0
2014-Jul-30 11:34N 46°11' W 123°52'1 0.6
2014-Jul-30 10:33N 46°11' W 123°53'9 8.9
2014-Jul-30 09:34N 46°15' W 124°04'8 8.2
2014-Jul-30 08:33N 46°07' W 124°07'8 8.3
2014-Jul-30 07:33N 45°59' W 124°08'8 8.2
2014-Jul-30 06:32N 45°51' W 124°10'32 1.0
2014-Jul-28 23:27N 45°19' W 124°15'6 6.7
2014-Jul-28 22:30N 45°25' W 124°15'19 8.0
2014-Jul-28 20:09N 45°44' W 124°18'5 7.9
2014-Jul-28 19:32N 45°49' W 124°18'6 6.2
2014-Jul-28 18:33N 45°55' W 124°18'6 5.9
2014-Jul-28 17:33N 45°49' W 124°18'7 6.6
2014-Jul-28 16:33N 45°44' W 124°12'5 5.0
2014-Jul-28 15:33N 45°48' W 124°14'4 3.9
2014-Jul-28 14:33N 45°51' W 124°18'5 5.0
2014-Jul-28 13:30N 45°56' W 124°21'8 0.2
2014-Jul-26 21:31N 46°03' W 124°16'9 8.9
2014-Jul-26 20:34N 46°10' W 124°09'7 7.2
2014-Jul-26 19:33N 46°15' W 124°02'7 6.7
2014-Jul-26 18:34N 46°11' W 123°54'1 1.2
2014-Jul-26 17:33N 46°11' W 123°52'0 0.0
2014-Jul-26 16:33N 46°11' W 123°52'0 0.0
2014-Jul-26 15:34N 46°11' W 123°52'0 0.0
2014-Jul-26 14:33N 46°11' W 123°52'0 0.0
2014-Jul-26 13:34N 46°11' W 123°52'0 0.0
2014-Jul-26 12:34N 46°11' W 123°52'2 1.6
2014-Jul-26 11:34N 46°12' W 123°54'5 5.3
2014-Jul-26 10:33N 46°15' W 124°00'4 4.5
2014-Jul-26 09:34N 46°13' W 124°06'8 8.4
2014-Jul-26 08:34N 46°04' W 124°07'8 8.4
2014-Jul-26 07:33N 45°56' W 124°08'9 8.4
2014-Jul-26 06:28N 45°47' W 124°10'9 0.3
2014-Jul-25 01:29N 45°55' W 124°12'9 9.3
2014-Jul-25 00:33N 46°04' W 124°09'9 9.1
2014-Jul-24 23:34N 46°13' W 124°06'8 7.8
2014-Jul-24 22:33N 46°12' W 123°55'2 2.2
2014-Jul-24 21:34N 46°11' W 123°52'0 0.0
2014-Jul-24 20:34N 46°11' W 123°52'0 0.0
2014-Jul-24 19:34N 46°11' W 123°52'0 0.0
2014-Jul-24 18:34N 46°11' W 123°52'0 0.0
2014-Jul-24 17:34N 46°11' W 123°52'0 0.0
2014-Jul-24 16:34N 46°11' W 123°52'0 0.0
2014-Jul-24 15:34N 46°11' W 123°52'0 0.0
2014-Jul-24 14:33N 46°11' W 123°52'0 0.0
2014-Jul-24 13:34N 46°11' W 123°52'0 0.0
2014-Jul-24 12:33N 46°11' W 123°52'0 0.0
2014-Jul-24 11:34N 46°11' W 123°52'0 0.0
2014-Jul-24 10:34N 46°11' W 123°52'0 0.0
2014-Jul-24 09:34N 46°11' W 123°52'0 0.0
2014-Jul-24 08:33N 46°11' W 123°52'0 0.0
2014-Jul-24 07:34N 46°11' W 123°52'0 0.0
2014-Jul-24 06:33N 46°11' W 123°52'0 0.0
2014-Jul-24 05:33N 46°11' W 123°52'0 0.0
2014-Jul-24 04:34N 46°11' W 123°52'0 0.0
2014-Jul-24 03:34N 46°11' W 123°52'0 0.0
2014-Jul-24 02:34N 46°11' W 123°52'0 0.0
2014-Jul-24 01:33N 46°11' W 123°52'0 0.0
2014-Jul-24 00:33N 46°11' W 123°52'0 0.0
2014-Jul-23 23:34N 46°11' W 123°52'0 0.0
2014-Jul-23 22:34N 46°11' W 123°52'0 0.0
2014-Jul-23 21:33N 46°11' W 123°52'0 0.0
2014-Jul-23 20:33N 46°11' W 123°52'0 0.0
2014-Jul-23 19:34N 46°11' W 123°52'0 0.0
2014-Jul-23 18:33N 46°11' W 123°52'0 0.0
2014-Jul-23 17:33N 46°11' W 123°52'0 0.0
2014-Jul-23 16:34N 46°11' W 123°52'0 0.0
2014-Jul-23 15:34N 46°11' W 123°52'0 0.0
2014-Jul-23 14:34N 46°11' W 123°52'0 0.0
2014-Jul-23 13:33N 46°11' W 123°52'0 0.0
2014-Jul-23 12:33N 46°11' W 123°52'0 0.0
2014-Jul-23 11:33N 46°11' W 123°52'4 3.7
2014-Jul-23 10:33N 46°13' W 123°57'5 4.7
2014-Jul-23 09:34N 46°15' W 124°03'6 6.0
2014-Jul-23 08:34N 46°11' W 124°09'9 9.3
2014-Jul-23 07:33N 46°02' W 124°12'10 9.7
2014-Jul-23 06:30N 45°52' W 124°16'  
Track history (hours):
 
Tides and Currents Weather Stations Pressure Air Temp Water Temp Dewpoint Dewpoint Depression Visibility Wind Speed Wind Dir Waves Ship Positions

Perseverance

More information available from US FCC via Universal Licensing System and Coast Guard Vessel Documentation Center.

Last reported at 2014-Aug-01 04:28 UTC. Time now 2014-Aug-01 05:53 UTC.
Position N 45°53' W 124°15'.

Type: Fishing. MMSI: 367618000.

Date/timePositionNaut miles runAvg speedWind from/ knotsBaromVisibWave heightAir tempDewpointWater temp
2014-Aug-01 04:28N 45°53' W 124°15'7 7.7
2014-Aug-01 03:33N 45°46' W 124°16'8 7.7
2014-Aug-01 02:33N 45°38' W 124°17'7 7.3
2014-Aug-01 01:33N 45°31' W 124°20'7 7.1
2014-Aug-01 00:34N 45°25' W 124°22'7 7.2
2014-Jul-31 23:33N 45°17' W 124°24'7 7.1
2014-Jul-31 22:33N 45°11' W 124°27'8 6.6
2014-Jul-31 21:24N 45°03' W 124°29'6 6.5
2014-Jul-31 20:33N 44°58' W 124°31'4 0.3
2014-Jul-31 08:15N 44°57' W 124°35'6 8.2
2014-Jul-31 07:33N 45°02' W 124°33'19 8.2
2014-Jul-31 05:17N 45°20' W 124°26'11 8.9
2014-Jul-31 04:05N 45°30' W 124°22'4 8.5
2014-Jul-31 03:34N 45°35' W 124°21'10 9.2
2014-Jul-31 02:29N 45°44' W 124°17'8 8.8
2014-Jul-31 01:33N 45°52' W 124°14'9 8.9
2014-Jul-31 00:33N 46°01' W 124°11'9 8.9
2014-Jul-30 23:33N 46°09' W 124°08'8 7.6
2014-Jul-30 22:34N 46°15' W 124°00'7 6.6
2014-Jul-30 21:33N 46°12' W 123°52'1 1.4
2014-Jul-30 20:33N 46°12' W 123°50'0 0.0
2014-Jul-30 19:34N 46°12' W 123°50'0 0.0
2014-Jul-30 18:33N 46°12' W 123°50'1 1.1
2014-Jul-30 17:33N 46°11' W 123°52'0 0.0
2014-Jul-30 16:33N 46°11' W 123°52'0 0.0
2014-Jul-30 15:33N 46°11' W 123°52'0 0.0
2014-Jul-30 14:33N 46°11' W 123°52'0 0.0
2014-Jul-30 13:34N 46°11' W 123°52'0 0.0
2014-Jul-30 12:33N 46°11' W 123°52'0 0.0
2014-Jul-30 11:34N 46°11' W 123°52'1 0.6
2014-Jul-30 10:33N 46°11' W 123°53'9 8.9
2014-Jul-30 09:34N 46°15' W 124°04'8 8.2
2014-Jul-30 08:33N 46°07' W 124°07'8 8.3
2014-Jul-30 07:33N 45°59' W 124°08'8 8.2
2014-Jul-30 06:32N 45°51' W 124°10'32 1.0
2014-Jul-28 23:27N 45°19' W 124°15'6 6.7
2014-Jul-28 22:30N 45°25' W 124°15'19 8.0
2014-Jul-28 20:09N 45°44' W 124°18'5 7.9
2014-Jul-28 19:32N 45°49' W 124°18'6 6.2
2014-Jul-28 18:33N 45°55' W 124°18'6 5.9
2014-Jul-28 17:33N 45°49' W 124°18'7 6.6
2014-Jul-28 16:33N 45°44' W 124°12'5 5.0
2014-Jul-28 15:33N 45°48' W 124°14'4 3.9
2014-Jul-28 14:33N 45°51' W 124°18'5 5.0
2014-Jul-28 13:30N 45°56' W 124°21'8 0.2
2014-Jul-26 21:31N 46°03' W 124°16'9 8.9
2014-Jul-26 20:34N 46°10' W 124°09'7 7.2
2014-Jul-26 19:33N 46°15' W 124°02'7 6.7
2014-Jul-26 18:34N 46°11' W 123°54'1 1.2
2014-Jul-26 17:33N 46°11' W 123°52'0 0.0
2014-Jul-26 16:33N 46°11' W 123°52'0 0.0
2014-Jul-26 15:34N 46°11' W 123°52'0 0.0
2014-Jul-26 14:33N 46°11' W 123°52'0 0.0
2014-Jul-26 13:34N 46°11' W 123°52'0 0.0
2014-Jul-26 12:34N 46°11' W 123°52'2 1.6
2014-Jul-26 11:34N 46°12' W 123°54'5 5.3
2014-Jul-26 10:33N 46°15' W 124°00'4 4.5
2014-Jul-26 09:34N 46°13' W 124°06'8 8.4
2014-Jul-26 08:34N 46°04' W 124°07'8 8.4
2014-Jul-26 07:33N 45°56' W 124°08'9 8.4
2014-Jul-26 06:28N 45°47' W 124°10'9 0.3
2014-Jul-25 01:29N 45°55' W 124°12'9 9.3
2014-Jul-25 00:33N 46°04' W 124°09'9 9.1
2014-Jul-24 23:34N 46°13' W 124°06'8 7.8
2014-Jul-24 22:33N 46°12' W 123°55'2 2.2
2014-Jul-24 21:34N 46°11' W 123°52'0 0.0
2014-Jul-24 20:34N 46°11' W 123°52'0 0.0
2014-Jul-24 19:34N 46°11' W 123°52'0 0.0
2014-Jul-24 18:34N 46°11' W 123°52'0 0.0
2014-Jul-24 17:34N 46°11' W 123°52'0 0.0
2014-Jul-24 16:34N 46°11' W 123°52'0 0.0
2014-Jul-24 15:34N 46°11' W 123°52'0 0.0
2014-Jul-24 14:33N 46°11' W 123°52'0 0.0
2014-Jul-24 13:34N 46°11' W 123°52'0 0.0
2014-Jul-24 12:33N 46°11' W 123°52'0 0.0
2014-Jul-24 11:34N 46°11' W 123°52'0 0.0
2014-Jul-24 10:34N 46°11' W 123°52'0 0.0
2014-Jul-24 09:34N 46°11' W 123°52'0 0.0
2014-Jul-24 08:33N 46°11' W 123°52'0 0.0
2014-Jul-24 07:34N 46°11' W 123°52'0 0.0
2014-Jul-24 06:33N 46°11' W 123°52'0 0.0
2014-Jul-24 05:33N 46°11' W 123°52'0 0.0
2014-Jul-24 04:34N 46°11' W 123°52'0 0.0
2014-Jul-24 03:34N 46°11' W 123°52'0 0.0
2014-Jul-24 02:34N 46°11' W 123°52'0 0.0
2014-Jul-24 01:33N 46°11' W 123°52'0 0.0
2014-Jul-24 00:33N 46°11' W 123°52'0 0.0
2014-Jul-23 23:34N 46°11' W 123°52'0 0.0
2014-Jul-23 22:34N 46°11' W 123°52'0 0.0
2014-Jul-23 21:33N 46°11' W 123°52'0 0.0
2014-Jul-23 20:33N 46°11' W 123°52'0 0.0
2014-Jul-23 19:34N 46°11' W 123°52'0 0.0
2014-Jul-23 18:33N 46°11' W 123°52'0 0.0
2014-Jul-23 17:33N 46°11' W 123°52'0 0.0
2014-Jul-23 16:34N 46°11' W 123°52'0 0.0
2014-Jul-23 15:34N 46°11' W 123°52'0 0.0
2014-Jul-23 14:34N 46°11' W 123°52'0 0.0
2014-Jul-23 13:33N 46°11' W 123°52'0 0.0
2014-Jul-23 12:33N 46°11' W 123°52'0 0.0
2014-Jul-23 11:33N 46°11' W 123°52'4 3.7
2014-Jul-23 10:33N 46°13' W 123°57'5 4.7
2014-Jul-23 09:34N 46°15' W 124°03'6 6.0
2014-Jul-23 08:34N 46°11' W 124°09'9 9.3
2014-Jul-23 07:33N 46°02' W 124°12'10 9.7
2014-Jul-23 06:30N 45°52' W 124°16'  

Dump ship's entire track history